Terminal Aerodrome Forecast
Issued by NWS

Home | Current Version | Previous Version | Text Only | Print | Product List | Glossary On
Versions: 1 2 3 4 5 6 7 8 9 10 11 12 13 14 15 16 17
950
FTAK31 PAJN 241729
TAFAWG
TAF
PAWG 241729Z 2418/2518 30003KT 1SM BR SCT005 BKN010
      TEMPO 2418/2419 5SM BR OVC020
     FM241900 30005KT P6SM FEW010 OVC020
     FM242000 30006KT P6SM FEW020 SCT040
     FM250900 30005KT 4SM BR BKN010 OVC015
      AMD LTD TO CLD VIS AND WIND 2506/2515=

USA.gov is the U.S. government's official web portal to all federal, state and local government web resources and services.